sensor_id;sensor_type;location;lat;lon;timestamp;pressure;altitude;pressure_sealevel;temperature;humidity
41632;BME280;37452;51.938;4.624;2023-08-12T00:00:53;75995.53;;;-142.75;100.00
41632;BME280;37452;51.938;4.624;2023-08-12T00:03:18;75981.75;;;-142.75;100.00
41632;BME280;37452;51.938;4.624;2023-08-12T00:05:45;75967.97;;;-142.75;100.00
41632;BME280;37452;51.938;4.624;2023-08-12T00:08:10;75967.97;;;-142.75;100.00
41632;BME280;37452;51.938;4.624;2023-08-12T00:10:36;75964.03;;;-142.75;100.00
41632;BME280;37452;51.938;4.624;2023-08-12T00:13:01;75952.25;;;-142.75;100.00
41632;BME280;37452;51.938;4.624;2023-08-12T00:15:26;75948.31;;;-142.75;100.00
41632;BME280;37452;51.938;4.624;2023-08-12T00:17:52;75946.34;;;-142.75;100.00
41632;BME280;37452;51.938;4.624;2023-08-12T00:20:18;75948.31;;;-142.75;100.00
41632;BME280;37452;51.938;4.624;2023-08-12T00:22:43;75938.47;;;-142.75;100.00
41632;BME280;37452;51.938;4.624;2023-08-12T00:25:09;75948.31;;;-142.75;100.00
41632;BME280;37452;51.938;4.624;2023-08-12T00:27:34;75952.25;;;-142.75;100.00
41632;BME280;37452;51.938;4.624;2023-08-12T00:30:00;75944.38;;;-142.75;100.00
41632;BME280;37452;51.938;4.624;2023-08-12T00:32:25;75936.50;;;-142.75;100.00
41632;BME280;37452;51.938;4.624;2023-08-12T00:34:51;75936.50;;;-142.75;100.00
41632;BME280;37452;51.938;4.624;2023-08-12T00:37:16;75932.56;;;-142.75;100.00
41632;BME280;37452;51.938;4.624;2023-08-12T00:39:42;75930.59;;;-142.75;100.00
41632;BME280;37452;51.938;4.624;2023-08-12T00:42:07;75932.56;;;-142.75;100.00
41632;BME280;37452;51.938;4.624;2023-08-12T00:44:32;75936.50;;;-142.75;100.00
41632;BME280;37452;51.938;4.624;2023-08-12T00:46:58;75926.66;;;-142.75;100.00
41632;BME280;37452;51.938;4.624;2023-08-12T00:49:23;75916.81;;;-142.75;100.00
41632;BME280;37452;51.938;4.624;2023-08-12T00:51:50;75914.84;;;-142.75;100.00
41632;BME280;37452;51.938;4.624;2023-08-12T00:54:16;75908.94;;;-142.75;100.00
41632;BME280;37452;51.938;4.624;2023-08-12T00:56:42;75910.91;;;-142.75;100.00
41632;BME280;37452;51.938;4.624;2023-08-12T00:59:08;75903.03;;;-142.75;100.00
41632;BME280;37452;51.938;4.624;2023-08-12T01:01:35;75905.00;;;-142.75;100.00
41632;BME280;37452;51.938;4.624;2023-08-12T01:04:00;75912.88;;;-142.75;100.00
41632;BME280;37452;51.938;4.624;2023-08-12T01:06:26;75891.22;;;-142.75;100.00
41632;BME280;37452;51.938;4.624;2023-08-12T01:08:52;75899.09;;;-142.75;100.00
41632;BME280;37452;51.938;4.624;2023-08-12T01:13:46;75905.00;;;-142.75;100.00
41632;BME280;37452;51.938;4.624;2023-08-12T01:16:16;75893.19;;;-142.75;100.00
41632;BME280;37452;51.938;4.624;2023-08-12T01:18:43;75889.25;;;-142.75;100.00
41632;BME280;37452;51.938;4.624;2023-08-12T01:21:11;75881.38;;;-142.75;100.00
41632;BME280;37452;51.938;4.624;2023-08-12T01:23:41;75877.44;;;-142.75;100.00
41632;BME280;37452;51.938;4.624;2023-08-12T01:26:06;75881.38;;;-142.75;100.00
41632;BME280;37452;51.938;4.624;2023-08-12T01:28:31;75873.50;;;-142.75;100.00
41632;BME280;37452;51.938;4.624;2023-08-12T01:31:11;75845.97;;;-142.75;100.00
41632;BME280;37452;51.938;4.624;2023-08-12T01:33:49;75857.78;;;-142.75;100.00
41632;BME280;37452;51.938;4.624;2023-08-12T01:36:18;75847.94;;;-142.75;100.00
41632;BME280;37452;51.938;4.624;2023-08-12T01:38:45;75830.22;;;-142.75;100.00
41632;BME280;37452;51.938;4.624;2023-08-12T01:41:13;75814.47;;;-142.75;100.00
41632;BME280;37452;51.938;4.624;2023-08-12T01:43:41;75820.38;;;-142.75;100.00
41632;BME280;37452;51.938;4.624;2023-08-12T01:46:07;75822.34;;;-142.75;100.00
41632;BME280;37452;51.938;4.624;2023-08-12T01:48:32;75808.56;;;-142.75;100.00
41632;BME280;37452;51.938;4.624;2023-08-12T01:50:58;75806.59;;;-142.75;100.00
41632;BME280;37452;51.938;4.624;2023-08-12T01:53:23;75806.59;;;-142.75;100.00
41632;BME280;37452;51.938;4.624;2023-08-12T01:55:49;75800.69;;;-142.75;100.00
41632;BME280;37452;51.938;4.624;2023-08-12T01:58:15;75798.72;;;-142.75;100.00
41632;BME280;37452;51.938;4.624;2023-08-12T02:00:40;75794.78;;;-142.75;100.00
41632;BME280;37452;51.938;4.624;2023-08-12T02:03:06;75794.78;;;-142.75;100.00
41632;BME280;37452;51.938;4.624;2023-08-12T02:05:32;75786.91;;;-142.75;100.00
41632;BME280;37452;51.938;4.624;2023-08-12T02:07:57;75779.03;;;-142.75;100.00
41632;BME280;37452;51.938;4.624;2023-08-12T02:10:23;75775.09;;;-142.75;100.00
41632;BME280;37452;51.938;4.624;2023-08-12T02:12:48;75771.16;;;-142.75;100.00
41632;BME280;37452;51.938;4.624;2023-08-12T02:15:14;75769.19;;;-142.75;100.00
41632;BME280;37452;51.938;4.624;2023-08-12T02:17:39;75769.19;;;-142.75;100.00
41632;BME280;37452;51.938;4.624;2023-08-12T02:20:05;75767.22;;;-142.75;100.00
41632;BME280;37452;51.938;4.624;2023-08-12T02:22:30;75767.22;;;-142.75;100.00
41632;BME280;37452;51.938;4.624;2023-08-12T02:24:56;75775.09;;;-142.75;100.00
41632;BME280;37452;51.938;4.624;2023-08-12T02:27:21;75767.22;;;-142.75;100.00
41632;BME280;37452;51.938;4.624;2023-08-12T02:29:47;75769.19;;;-142.75;100.00
41632;BME280;37452;51.938;4.624;2023-08-12T02:32:12;75763.28;;;-142.75;100.00
41632;BME280;37452;51.938;4.624;2023-08-12T02:34:37;75751.50;;;-142.75;100.00
41632;BME280;37452;51.938;4.624;2023-08-12T02:37:03;75743.63;;;-142.75;100.00
41632;BME280;37452;51.938;4.624;2023-08-12T02:39:28;75755.44;;;-142.75;100.00
41632;BME280;37452;51.938;4.624;2023-08-12T02:41:53;75743.63;;;-142.75;100.00
41632;BME280;37452;51.938;4.624;2023-08-12T02:44:19;75729.84;;;-142.75;100.00
41632;BME280;37452;51.938;4.624;2023-08-12T02:46:44;75731.81;;;-142.75;100.00
41632;BME280;37452;51.938;4.624;2023-08-12T02:49:10;75727.88;;;-142.75;100.00
41632;BME280;37452;51.938;4.624;2023-08-12T02:51:35;75720.00;;;-142.75;100.00
41632;BME280;37452;51.938;4.624;2023-08-12T02:54:00;75725.91;;;-142.75;100.00
41632;BME280;37452;51.938;4.624;2023-08-12T02:56:26;75706.22;;;-142.75;100.00
41632;BME280;37452;51.938;4.624;2023-08-12T02:58:51;75704.25;;;-142.75;100.00
41632;BME280;37452;51.938;4.624;2023-08-12T03:01:17;75706.22;;;-142.75;100.00
41632;BME280;37452;51.938;4.624;2023-08-12T03:03:43;75702.28;;;-142.75;100.00
41632;BME280;37452;51.938;4.624;2023-08-12T03:06:08;75704.25;;;-142.75;100.00
41632;BME280;37452;51.938;4.624;2023-08-12T03:08:33;75696.38;;;-142.75;100.00
41632;BME280;37452;51.938;4.624;2023-08-12T03:11:00;75692.44;;;-142.75;100.00
41632;BME280;37452;51.938;4.624;2023-08-12T03:13:25;75678.66;;;-142.75;100.00
41632;BME280;37452;51.938;4.624;2023-08-12T03:15:51;75672.78;;;-142.75;100.00
41632;BME280;37452;51.938;4.624;2023-08-12T03:18:16;75666.88;;;-142.75;100.00
41632;BME280;37452;51.938;4.624;2023-08-12T03:20:41;75657.03;;;-142.75;100.00
41632;BME280;37452;51.938;4.624;2023-08-12T03:23:07;75645.22;;;-142.75;100.00
41632;BME280;37452;51.938;4.624;2023-08-12T03:25:32;75629.47;;;-142.75;100.00
41632;BME280;37452;51.938;4.624;2023-08-12T03:27:58;75627.50;;;-142.75;100.00
41632;BME280;37452;51.938;4.624;2023-08-12T03:30:23;75629.47;;;-142.75;100.00
41632;BME280;37452;51.938;4.624;2023-08-12T03:32:48;75641.28;;;-142.75;100.00
41632;BME280;37452;51.938;4.624;2023-08-12T03:35:14;75653.09;;;-142.75;100.00
41632;BME280;37452;51.938;4.624;2023-08-12T03:37:39;75649.16;;;-142.75;100.00
41632;BME280;37452;51.938;4.624;2023-08-12T03:40:05;75651.13;;;-142.75;100.00
41632;BME280;37452;51.938;4.624;2023-08-12T03:42:31;75641.28;;;-142.75;100.00
41632;BME280;37452;51.938;4.624;2023-08-12T03:44:56;75633.41;;;-142.75;100.00
41632;BME280;37452;51.938;4.624;2023-08-12T03:47:22;75621.59;;;-142.75;100.00
41632;BME280;37452;51.938;4.624;2023-08-12T03:49:49;75609.78;;;-142.75;100.00
41632;BME280;37452;51.938;4.624;2023-08-12T03:52:14;75605.84;;;-142.75;100.00
41632;BME280;37452;51.938;4.624;2023-08-12T03:54:40;75603.88;;;-142.75;100.00
41632;BME280;37452;51.938;4.624;2023-08-12T03:57:05;75613.72;;;-142.75;100.00
41632;BME280;37452;51.938;4.624;2023-08-12T03:59:31;75633.41;;;-142.75;100.00
41632;BME280;37452;51.938;4.624;2023-08-12T04:01:56;75641.28;;;-142.75;100.00
41632;BME280;37452;51.938;4.624;2023-08-12T04:04:22;75655.06;;;-142.75;100.00
41632;BME280;37452;51.938;4.624;2023-08-12T04:06:48;75623.56;;;-142.75;100.00
41632;BME280;37452;51.938;4.624;2023-08-12T04:09:19;75621.59;;;-142.75;100.00
41632;BME280;37452;51.938;4.624;2023-08-12T04:11:45;75619.63;;;-142.75;100.00
41632;BME280;37452;51.938;4.624;2023-08-12T04:14:11;75621.59;;;-142.75;100.00
41632;BME280;37452;51.938;4.624;2023-08-12T04:16:36;75609.78;;;-142.75;100.00
41632;BME280;37452;51.938;4.624;2023-08-12T04:19:02;75625.53;;;-142.75;100.00
41632;BME280;37452;51.938;4.624;2023-08-12T04:21:28;75617.66;;;-142.75;100.00
41632;BME280;37452;51.938;4.624;2023-08-12T04:23:53;75609.78;;;-142.75;100.00
41632;BME280;37452;51.938;4.624;2023-08-12T04:26:18;75597.97;;;-142.75;100.00
41632;BME280;37452;51.938;4.624;2023-08-12T04:28:44;75613.72;;;-142.75;100.00
41632;BME280;37452;51.938;4.624;2023-08-12T04:31:09;75599.94;;;-142.75;100.00
41632;BME280;37452;51.938;4.624;2023-08-12T04:33:34;75601.91;;;-142.75;100.00
41632;BME280;37452;51.938;4.624;2023-08-12T04:36:00;75607.81;;;-142.75;100.00
41632;BME280;37452;51.938;4.624;2023-08-12T04:38:25;75625.53;;;-142.75;100.00
41632;BME280;37452;51.938;4.624;2023-08-12T04:40:53;75605.84;;;-142.75;100.00
41632;BME280;37452;51.938;4.624;2023-08-12T04:43:18;75596.00;;;-142.75;100.00
41632;BME280;37452;51.938;4.624;2023-08-12T04:45:45;75590.13;;;-142.75;100.00
41632;BME280;37452;51.938;4.624;2023-08-12T04:48:11;75601.91;;;-142.75;100.00
41632;BME280;37452;51.938;4.624;2023-08-12T04:50:36;75594.06;;;-142.75;100.00
41632;BME280;37452;51.938;4.624;2023-08-12T04:53:01;75586.19;;;-142.75;100.00
41632;BME280;37452;51.938;4.624;2023-08-12T04:55:27;75582.25;;;-142.75;100.00
41632;BME280;37452;51.938;4.624;2023-08-12T04:57:52;75597.97;;;-142.75;100.00
41632;BME280;37452;51.938;4.624;2023-08-12T05:00:19;75601.91;;;-142.75;100.00
41632;BME280;37452;51.938;4.624;2023-08-12T05:02:44;75609.78;;;-142.75;100.00
41632;BME280;37452;51.938;4.624;2023-08-12T05:05:10;75594.06;;;-142.75;100.00
41632;BME280;37452;51.938;4.624;2023-08-12T05:07:35;75590.13;;;-142.75;100.00
41632;BME280;37452;51.938;4.624;2023-08-12T05:10:01;75588.16;;;-142.75;100.00
41632;BME280;37452;51.938;4.624;2023-08-12T05:12:26;75603.88;;;-142.75;100.00
41632;BME280;37452;51.938;4.624;2023-08-12T05:14:52;75609.78;;;-142.75;100.00
41632;BME280;37452;51.938;4.624;2023-08-12T05:17:17;75607.81;;;-142.75;100.00
41632;BME280;37452;51.938;4.624;2023-08-12T05:19:42;75605.84;;;-142.75;100.00
41632;BME280;37452;51.938;4.624;2023-08-12T05:22:08;75588.16;;;-142.75;100.00
41632;BME280;37452;51.938;4.624;2023-08-12T05:24:33;75578.31;;;-142.75;100.00
41632;BME280;37452;51.938;4.624;2023-08-12T05:26:58;75578.31;;;-142.75;100.00
41632;BME280;37452;51.938;4.624;2023-08-12T05:29:24;75586.19;;;-142.75;100.00
41632;BME280;37452;51.938;4.624;2023-08-12T05:31:49;75584.22;;;-142.75;100.00
41632;BME280;37452;51.938;4.624;2023-08-12T05:34:14;75586.19;;;-142.75;100.00
41632;BME280;37452;51.938;4.624;2023-08-12T05:36:40;75590.13;;;-142.75;100.00
41632;BME280;37452;51.938;4.624;2023-08-12T05:39:05;75603.88;;;-142.75;100.00
41632;BME280;37452;51.938;4.624;2023-08-12T05:41:31;75627.50;;;-142.75;100.00
41632;BME280;37452;51.938;4.624;2023-08-12T05:43:56;75633.41;;;-142.75;100.00
41632;BME280;37452;51.938;4.624;2023-08-12T05:46:21;75627.50;;;-142.75;100.00
41632;BME280;37452;51.938;4.624;2023-08-12T05:48:47;75623.56;;;-142.75;100.00
41632;BME280;37452;51.938;4.624;2023-08-12T05:51:12;75635.38;;;-142.75;100.00
41632;BME280;37452;51.938;4.624;2023-08-12T05:53:38;75645.22;;;-142.75;100.00
41632;BME280;37452;51.938;4.624;2023-08-12T05:56:04;75629.47;;;-142.75;100.00
41632;BME280;37452;51.938;4.624;2023-08-12T05:58:29;75647.19;;;-142.75;100.00
41632;BME280;37452;51.938;4.624;2023-08-12T06:00:55;75629.47;;;-142.75;100.00
41632;BME280;37452;51.938;4.624;2023-08-12T06:03:20;75629.47;;;-142.75;100.00
41632;BME280;37452;51.938;4.624;2023-08-12T06:05:46;75615.69;;;-142.75;100.00
41632;BME280;37452;51.938;4.624;2023-08-12T06:08:12;75625.53;;;-142.75;100.00
41632;BME280;37452;51.938;4.624;2023-08-12T06:10:37;75613.72;;;-142.75;100.00
41632;BME280;37452;51.938;4.624;2023-08-12T06:13:03;75615.69;;;-142.75;100.00
41632;BME280;37452;51.938;4.624;2023-08-12T06:15:28;75621.59;;;-142.75;100.00
41632;BME280;37452;51.938;4.624;2023-08-12T06:17:54;75613.72;;;-142.75;100.00
41632;BME280;37452;51.938;4.624;2023-08-12T06:20:19;75625.53;;;-142.75;100.00
41632;BME280;37452;51.938;4.624;2023-08-12T06:22:44;75623.56;;;-142.75;100.00
41632;BME280;37452;51.938;4.624;2023-08-12T06:25:10;75603.88;;;-142.75;100.00
41632;BME280;37452;51.938;4.624;2023-08-12T06:27:35;75590.13;;;-142.75;100.00
41632;BME280;37452;51.938;4.624;2023-08-12T06:30:00;75582.25;;;-142.75;100.00
41632;BME280;37452;51.938;4.624;2023-08-12T06:32:26;75599.94;;;-142.75;100.00
41632;BME280;37452;51.938;4.624;2023-08-12T06:34:51;75584.22;;;-142.75;100.00
41632;BME280;37452;51.938;4.624;2023-08-12T06:37:17;75578.31;;;-142.75;100.00
41632;BME280;37452;51.938;4.624;2023-08-12T06:39:42;75566.50;;;-142.75;100.00
41632;BME280;37452;51.938;4.624;2023-08-12T06:42:07;75560.59;;;-142.75;100.00
41632;BME280;37452;51.938;4.624;2023-08-12T06:44:33;75550.75;;;-142.75;100.00
41632;BME280;37452;51.938;4.624;2023-08-12T06:46:58;75550.75;;;-142.75;100.00
41632;BME280;37452;51.938;4.624;2023-08-12T06:49:23;75550.75;;;-142.75;100.00
41632;BME280;37452;51.938;4.624;2023-08-12T06:51:49;75562.56;;;-142.75;100.00
41632;BME280;37452;51.938;4.624;2023-08-12T06:54:14;75556.66;;;-142.75;100.00
41632;BME280;37452;51.938;4.624;2023-08-12T06:56:39;75548.78;;;-142.75;100.00
41632;BME280;37452;51.938;4.624;2023-08-12T06:59:05;75542.88;;;-142.75;100.00
41632;BME280;37452;51.938;4.624;2023-08-12T07:01:30;75540.91;;;-142.75;100.00
41632;BME280;37452;51.938;4.624;2023-08-12T07:03:56;75533.03;;;-142.75;100.00
41632;BME280;37452;51.938;4.624;2023-08-12T07:06:22;75531.06;;;-142.75;100.00
41632;BME280;37452;51.938;4.624;2023-08-12T07:08:47;75527.13;;;-142.75;100.00
41632;BME280;37452;51.938;4.624;2023-08-12T07:11:12;75529.09;;;-142.75;100.00
41632;BME280;37452;51.938;4.624;2023-08-12T07:13:38;75527.13;;;-142.75;100.00
41632;BME280;37452;51.938;4.624;2023-08-12T07:16:03;75542.88;;;-142.75;100.00
41632;BME280;37452;51.938;4.624;2023-08-12T07:18:29;75535.00;;;-142.75;100.00
41632;BME280;37452;51.938;4.624;2023-08-12T07:20:54;75523.19;;;-142.75;100.00
41632;BME280;37452;51.938;4.624;2023-08-12T07:23:20;75521.22;;;-142.75;100.00
41632;BME280;37452;51.938;4.624;2023-08-12T07:25:46;75527.13;;;-142.75;100.00
41632;BME280;37452;51.938;4.624;2023-08-12T07:28:11;75574.38;;;-142.75;100.00
41632;BME280;37452;51.938;4.624;2023-08-12T07:30:37;75684.56;;;-142.75;100.00
41632;BME280;37452;51.938;4.624;2023-08-12T07:33:03;75743.63;;;-142.75;100.00
41632;BME280;37452;51.938;4.624;2023-08-12T07:35:29;75786.91;;;-142.75;100.00
41632;BME280;37452;51.938;4.624;2023-08-12T07:37:54;75790.84;;;-142.75;100.00
41632;BME280;37452;51.938;4.624;2023-08-12T07:40:19;75806.59;;;-142.75;100.00
41632;BME280;37452;51.938;4.624;2023-08-12T07:42:45;75818.41;;;-142.75;100.00
41632;BME280;37452;51.938;4.624;2023-08-12T07:45:10;75812.50;;;-142.75;100.00
41632;BME280;37452;51.938;4.624;2023-08-12T07:47:35;75802.66;;;-142.75;100.00
41632;BME280;37452;51.938;4.624;2023-08-12T07:50:01;75828.25;;;-142.75;100.00
41632;BME280;37452;51.938;4.624;2023-08-12T07:52:26;75826.28;;;-142.75;100.00
41632;BME280;37452;51.938;4.624;2023-08-12T07:54:52;75814.47;;;-142.75;100.00
41632;BME280;37452;51.938;4.624;2023-08-12T07:57:17;75838.09;;;-142.75;100.00
41632;BME280;37452;51.938;4.624;2023-08-12T07:59:42;75844.00;;;-142.75;100.00
41632;BME280;37452;51.938;4.624;2023-08-12T08:02:08;75873.50;;;-142.75;100.00
41632;BME280;37452;51.938;4.624;2023-08-12T08:04:33;75865.63;;;-142.75;100.00
41632;BME280;37452;51.938;4.624;2023-08-12T08:06:59;75861.69;;;-142.75;100.00
41632;BME280;37452;51.938;4.624;2023-08-12T08:09:24;75844.00;;;-142.75;100.00
41632;BME280;37452;51.938;4.624;2023-08-12T08:11:49;75847.94;;;-142.75;100.00
41632;BME280;37452;51.938;4.624;2023-08-12T08:14:15;75857.78;;;-142.75;100.00
41632;BME280;37452;51.938;4.624;2023-08-12T08:16:40;75849.91;;;-142.75;100.00
41632;BME280;37452;51.938;4.624;2023-08-12T08:19:06;75808.56;;;-142.75;100.00
41632;BME280;37452;51.938;4.624;2023-08-12T08:21:32;75834.16;;;-142.75;100.00
41632;BME280;37452;51.938;4.624;2023-08-12T08:23:57;75802.66;;;-142.75;100.00
41632;BME280;37452;51.938;4.624;2023-08-12T08:26:23;75777.06;;;-142.75;100.00
41632;BME280;37452;51.938;4.624;2023-08-12T08:28:48;75769.19;;;-142.75;100.00
41632;BME280;37452;51.938;4.624;2023-08-12T08:31:13;75784.94;;;-142.75;100.00
41632;BME280;37452;51.938;4.624;2023-08-12T08:33:39;75792.81;;;-142.75;100.00
41632;BME280;37452;51.938;4.624;2023-08-12T08:36:04;75782.97;;;-142.75;100.00
41632;BME280;37452;51.938;4.624;2023-08-12T08:38:29;75779.03;;;-142.75;100.00
41632;BME280;37452;51.938;4.624;2023-08-12T08:40:57;75773.13;;;-142.75;100.00
41632;BME280;37452;51.938;4.624;2023-08-12T08:43:23;75765.25;;;-142.75;100.00
41632;BME280;37452;51.938;4.624;2023-08-12T08:45:54;75743.63;;;-142.75;100.00
41632;BME280;37452;51.938;4.624;2023-08-12T08:48:20;75731.81;;;-142.75;100.00
41632;BME280;37452;51.938;4.624;2023-08-12T08:50:47;75694.41;;;-142.75;100.00
41632;BME280;37452;51.938;4.624;2023-08-12T08:53:14;75641.28;;;-142.75;100.00
41632;BME280;37452;51.938;4.624;2023-08-12T08:55:41;75639.31;;;-142.75;100.00
41632;BME280;37452;51.938;4.624;2023-08-12T08:58:07;75643.25;;;-142.75;100.00
41632;BME280;37452;51.938;4.624;2023-08-12T09:00:32;75594.06;;;-142.75;100.00
41632;BME280;37452;51.938;4.624;2023-08-12T09:02:58;75578.31;;;-142.75;100.00
41632;BME280;37452;51.938;4.624;2023-08-12T09:05:25;75546.81;;;-142.75;100.00
41632;BME280;37452;51.938;4.624;2023-08-12T09:07:51;75535.00;;;-142.75;100.00
41632;BME280;37452;51.938;4.624;2023-08-12T09:10:20;75493.69;;;-142.75;100.00
41632;BME280;37452;51.938;4.624;2023-08-12T09:12:46;75485.81;;;-142.75;100.00
41632;BME280;37452;51.938;4.624;2023-08-12T09:15:12;75475.97;;;-142.75;100.00
41632;BME280;37452;51.938;4.624;2023-08-12T09:17:38;75438.56;;;-142.75;100.00
41632;BME280;37452;51.938;4.624;2023-08-12T09:20:04;75424.81;;;-142.75;100.00
41632;BME280;37452;51.938;4.624;2023-08-12T09:22:36;75422.84;;;-142.75;100.00
41632;BME280;37452;51.938;4.624;2023-08-12T09:25:02;75452.34;;;-142.75;100.00
41632;BME280;37452;51.938;4.624;2023-08-12T09:27:30;75495.66;;;-142.75;100.00
41632;BME280;37452;51.938;4.624;2023-08-12T09:29:56;75523.19;;;-142.75;100.00
41632;BME280;37452;51.938;4.624;2023-08-12T09:32:22;75641.28;;;-142.75;100.00
41632;BME280;37452;51.938;4.624;2023-08-12T09:34:49;75603.88;;;-142.75;100.00
41632;BME280;37452;51.938;4.624;2023-08-12T09:37:14;75586.19;;;-142.75;100.00
41632;BME280;37452;51.938;4.624;2023-08-12T09:39:41;75597.97;;;-142.75;100.00
41632;BME280;37452;51.938;4.624;2023-08-12T09:42:06;75546.81;;;-142.75;100.00
41632;BME280;37452;51.938;4.624;2023-08-12T09:44:38;75562.56;;;-142.75;100.00
41632;BME280;37452;51.938;4.624;2023-08-12T09:47:05;75554.69;;;-142.75;100.00
41632;BME280;37452;51.938;4.624;2023-08-12T09:49:31;75536.97;;;-142.75;100.00
41632;BME280;37452;51.938;4.624;2023-08-12T09:51:57;75556.66;;;-142.75;100.00
41632;BME280;37452;51.938;4.624;2023-08-12T09:54:25;75607.81;;;-142.75;100.00
41632;BME280;37452;51.938;4.624;2023-08-12T09:56:55;75609.78;;;-142.75;100.00
41632;BME280;37452;51.938;4.624;2023-08-12T09:59:22;75596.00;;;-142.75;100.00
41632;BME280;37452;51.938;4.624;2023-08-12T10:01:49;75617.66;;;-142.75;100.00
41632;BME280;37452;51.938;4.624;2023-08-12T10:04:17;75696.38;;;-142.75;100.00
41632;BME280;37452;51.938;4.624;2023-08-12T10:06:44;75708.19;;;-142.75;100.00
41632;BME280;37452;51.938;4.624;2023-08-12T10:09:10;75727.88;;;-142.75;100.00
41632;BME280;37452;51.938;4.624;2023-08-12T10:11:37;75672.78;;;-142.75;100.00
41632;BME280;37452;51.938;4.624;2023-08-12T10:14:04;75688.50;;;-142.75;100.00
41632;BME280;37452;51.938;4.624;2023-08-12T10:16:29;75637.34;;;-142.75;100.00
41632;BME280;37452;51.938;4.624;2023-08-12T10:18:59;75635.38;;;-142.75;100.00
41632;BME280;37452;51.938;4.624;2023-08-12T10:21:26;75568.47;;;-142.75;100.00
41632;BME280;37452;51.938;4.624;2023-08-12T10:23:53;75509.44;;;-142.75;100.00
41632;BME280;37452;51.938;4.624;2023-08-12T10:26:19;75521.22;;;-142.75;100.00
41632;BME280;37452;51.938;4.624;2023-08-12T10:28:44;75499.59;;;-142.75;100.00
41632;BME280;37452;51.938;4.624;2023-08-12T10:31:11;75468.09;;;-142.75;100.00
41632;BME280;37452;51.938;4.624;2023-08-12T10:33:38;75464.16;;;-142.75;100.00
41632;BME280;37452;51.938;4.624;2023-08-12T10:36:04;75472.03;;;-142.75;100.00
41632;BME280;37452;51.938;4.624;2023-08-12T10:38:32;75448.41;;;-142.75;100.00
41632;BME280;37452;51.938;4.624;2023-08-12T10:46:36;75418.91;;;-142.75;100.00
41632;BME280;37452;51.938;4.624;2023-08-12T10:49:09;75432.69;;;-142.75;100.00
41632;BME280;37452;51.938;4.624;2023-08-12T10:51:41;75385.44;;;-142.75;100.00
41632;BME280;37452;51.938;4.624;2023-08-12T10:54:30;75359.88;;;-142.75;100.00
41632;BME280;37452;51.938;4.624;2023-08-12T11:02:27;75344.13;;;-142.75;100.00
41632;BME280;37452;51.938;4.624;2023-08-12T11:05:02;75342.16;;;-142.75;100.00
41632;BME280;37452;51.938;4.624;2023-08-12T11:09:59;75294.94;;;-142.75;100.00
41632;BME280;37452;51.938;4.624;2023-08-12T11:12:30;75302.78;;;-142.75;100.00
41632;BME280;37452;51.938;4.624;2023-08-12T11:14:57;75291.00;;;-142.75;100.00
41632;BME280;37452;51.938;4.624;2023-08-12T11:17:29;75308.69;;;-142.75;100.00
41632;BME280;37452;51.938;4.624;2023-08-12T11:19:57;75334.28;;;-142.75;100.00
41632;BME280;37452;51.938;4.624;2023-08-12T11:22:23;75328.38;;;-142.75;100.00
41632;BME280;37452;51.938;4.624;2023-08-12T11:24:48;75289.03;;;-142.75;100.00
41632;BME280;37452;51.938;4.624;2023-08-12T11:27:14;75279.19;;;-142.75;100.00
41632;BME280;37452;51.938;4.624;2023-08-12T11:29:39;75245.72;;;-142.75;100.00
41632;BME280;37452;51.938;4.624;2023-08-12T11:32:08;75206.38;;;-142.75;100.00
41632;BME280;37452;51.938;4.624;2023-08-12T11:34:33;75174.88;;;-142.75;100.00
41632;BME280;37452;51.938;4.624;2023-08-12T11:36:58;75180.78;;;-142.75;100.00
41632;BME280;37452;51.938;4.624;2023-08-12T11:39:24;75174.88;;;-142.75;100.00
41632;BME280;37452;51.938;4.624;2023-08-12T11:41:49;75147.34;;;-142.75;100.00
41632;BME280;37452;51.938;4.624;2023-08-12T11:44:22;75153.25;;;-142.75;93.21
41632;BME280;37452;51.938;4.624;2023-08-12T11:46:48;75170.94;;;-142.75;95.78
41632;BME280;37452;51.938;4.624;2023-08-12T11:49:14;75157.19;;;-142.75;100.00
41632;BME280;37452;51.938;4.624;2023-08-12T11:51:39;75216.22;;;-142.75;96.96
41632;BME280;37452;51.938;4.624;2023-08-12T11:54:06;75216.22;;;-142.75;93.31
41632;BME280;37452;51.938;4.624;2023-08-12T11:56:31;75194.56;;;-142.75;95.58
41632;BME280;37452;51.938;4.624;2023-08-12T11:58:57;75222.13;;;-142.75;96.67
41632;BME280;37452;51.938;4.624;2023-08-12T12:01:22;75204.41;;;-142.75;99.13
41632;BME280;37452;51.938;4.624;2023-08-12T12:03:52;75188.66;;;-142.75;98.56
41632;BME280;37452;51.938;4.624;2023-08-12T12:06:35;75194.56;;;-142.75;95.85
41632;BME280;37452;51.938;4.624;2023-08-12T12:09:08;75188.66;;;-142.75;100.00
41632;BME280;37452;51.938;4.624;2023-08-12T12:11:38;75188.66;;;-142.75;95.63
41632;BME280;37452;51.938;4.624;2023-08-12T12:14:05;75165.03;;;-142.75;95.28
41632;BME280;37452;51.938;4.624;2023-08-12T12:16:41;75161.13;;;-142.75;91.30
41632;BME280;37452;51.938;4.624;2023-08-12T12:19:22;75172.91;;;-142.75;89.76
41632;BME280;37452;51.938;4.624;2023-08-12T12:21:50;75176.84;;;-142.75;91.85
41632;BME280;37452;51.938;4.624;2023-08-12T12:24:17;75186.69;;;-142.75;86.53
41632;BME280;37452;51.938;4.624;2023-08-12T12:26:43;75192.59;;;-142.75;88.63
41632;BME280;37452;51.938;4.624;2023-08-12T12:29:09;75170.94;;;-142.75;94.50
41632;BME280;37452;51.938;4.624;2023-08-12T12:31:37;75143.41;;;-142.75;93.03
41632;BME280;37452;51.938;4.624;2023-08-12T12:34:03;75168.97;;;-142.75;88.53
41632;BME280;37452;51.938;4.624;2023-08-12T12:36:34;75184.72;;;-142.75;90.09
41632;BME280;37452;51.938;4.624;2023-08-12T12:38:59;75229.97;;;-142.75;88.42
41632;BME280;37452;51.938;4.624;2023-08-12T12:41:24;75233.91;;;-142.75;88.35